sensor_id;sensor_type;location;lat;lon;timestamp;P1;durP1;ratioP1;P2;durP2;ratioP2
5245;SDS011;54412;51.206;6.888;2024-02-14T00:01:34;5.70;;;2.03;;
5245;SDS011;54412;51.206;6.888;2024-02-14T00:04:02;3.87;;;2.57;;
5245;SDS011;54412;51.206;6.888;2024-02-14T00:06:28;6.03;;;3.07;;
5245;SDS011;54412;51.206;6.888;2024-02-14T00:09:00;4.47;;;2.80;;
5245;SDS011;54412;51.206;6.888;2024-02-14T00:11:25;4.53;;;2.10;;
5245;SDS011;54412;51.206;6.888;2024-02-14T00:13:51;7.13;;;2.70;;
5245;SDS011;54412;51.206;6.888;2024-02-14T00:16:17;2.53;;;1.90;;
5245;SDS011;54412;51.206;6.888;2024-02-14T00:18:42;4.33;;;2.20;;
5245;SDS011;54412;51.206;6.888;2024-02-14T00:21:08;2.23;;;1.70;;
5245;SDS011;54412;51.206;6.888;2024-02-14T00:23:34;4.87;;;3.23;;
5245;SDS011;54412;51.206;6.888;2024-02-14T00:26:00;3.33;;;2.53;;
5245;SDS011;54412;51.206;6.888;2024-02-14T00:28:25;5.07;;;2.23;;
5245;SDS011;54412;51.206;6.888;2024-02-14T00:30:51;3.63;;;2.10;;
5245;SDS011;54412;51.206;6.888;2024-02-14T00:33:17;6.10;;;2.23;;
5245;SDS011;54412;51.206;6.888;2024-02-14T00:35:45;3.40;;;2.10;;
5245;SDS011;54412;51.206;6.888;2024-02-14T00:38:11;7.37;;;2.77;;
5245;SDS011;54412;51.206;6.888;2024-02-14T00:40:36;3.50;;;2.33;;
5245;SDS011;54412;51.206;6.888;2024-02-14T00:43:02;3.83;;;2.20;;
5245;SDS011;54412;51.206;6.888;2024-02-14T00:45:28;4.10;;;2.70;;
5245;SDS011;54412;51.206;6.888;2024-02-14T00:47:53;6.03;;;2.60;;
5245;SDS011;54412;51.206;6.888;2024-02-14T00:50:19;2.97;;;2.13;;
5245;SDS011;54412;51.206;6.888;2024-02-14T00:52:44;4.10;;;2.10;;
5245;SDS011;54412;51.206;6.888;2024-02-14T00:55:10;4.27;;;2.20;;
5245;SDS011;54412;51.206;6.888;2024-02-14T00:57:36;7.43;;;2.40;;
5245;SDS011;54412;51.206;6.888;2024-02-14T01:00:02;6.10;;;2.40;;
5245;SDS011;54412;51.206;6.888;2024-02-14T01:02:31;3.77;;;1.87;;
5245;SDS011;54412;51.206;6.888;2024-02-14T01:04:57;4.13;;;2.40;;
5245;SDS011;54412;51.206;6.888;2024-02-14T01:07:23;4.17;;;2.13;;
5245;SDS011;54412;51.206;6.888;2024-02-14T01:09:49;1.70;;;1.60;;
5245;SDS011;54412;51.206;6.888;2024-02-14T01:12:15;3.47;;;2.13;;
5245;SDS011;54412;51.206;6.888;2024-02-14T01:14:41;2.10;;;1.90;;
5245;SDS011;54412;51.206;6.888;2024-02-14T01:17:07;2.47;;;1.93;;
5245;SDS011;54412;51.206;6.888;2024-02-14T01:19:33;4.53;;;1.67;;
5245;SDS011;54412;51.206;6.888;2024-02-14T01:21:58;2.67;;;1.50;;
5245;SDS011;54412;51.206;6.888;2024-02-14T01:24:25;2.80;;;1.50;;
5245;SDS011;54412;51.206;6.888;2024-02-14T01:26:55;2.03;;;1.70;;
5245;SDS011;54412;51.206;6.888;2024-02-14T01:29:21;3.37;;;1.70;;
5245;SDS011;54412;51.206;6.888;2024-02-14T01:31:48;3.30;;;1.50;;
5245;SDS011;54412;51.206;6.888;2024-02-14T01:34:15;2.87;;;1.20;;
5245;SDS011;54412;51.206;6.888;2024-02-14T01:36:40;7.33;;;1.60;;
5245;SDS011;54412;51.206;6.888;2024-02-14T01:39:06;1.47;;;1.00;;
5245;SDS011;54412;51.206;6.888;2024-02-14T01:41:36;1.70;;;1.60;;
5245;SDS011;54412;51.206;6.888;2024-02-14T01:44:03;2.40;;;1.30;;
5245;SDS011;54412;51.206;6.888;2024-02-14T01:46:29;1.80;;;1.23;;
5245;SDS011;54412;51.206;6.888;2024-02-14T01:48:55;3.07;;;1.10;;
5245;SDS011;54412;51.206;6.888;2024-02-14T01:51:22;1.57;;;1.23;;
5245;SDS011;54412;51.206;6.888;2024-02-14T01:53:50;1.57;;;1.10;;
5245;SDS011;54412;51.206;6.888;2024-02-14T01:56:18;1.90;;;1.13;;
5245;SDS011;54412;51.206;6.888;2024-02-14T01:58:44;2.83;;;1.37;;
5245;SDS011;54412;51.206;6.888;2024-02-14T02:01:11;2.73;;;1.03;;
5245;SDS011;54412;51.206;6.888;2024-02-14T02:03:37;1.93;;;1.27;;
5245;SDS011;54412;51.206;6.888;2024-02-14T02:06:05;1.70;;;1.30;;
5245;SDS011;54412;51.206;6.888;2024-02-14T02:08:31;2.10;;;1.23;;
5245;SDS011;54412;51.206;6.888;2024-02-14T02:10:58;1.20;;;1.10;;
5245;SDS011;54412;51.206;6.888;2024-02-14T02:13:24;2.57;;;1.27;;
5245;SDS011;54412;51.206;6.888;2024-02-14T02:15:51;5.03;;;1.60;;
5245;SDS011;54412;51.206;6.888;2024-02-14T02:18:18;1.30;;;1.20;;
5245;SDS011;54412;51.206;6.888;2024-02-14T02:20:44;4.33;;;1.37;;
5245;SDS011;54412;51.206;6.888;2024-02-14T02:23:11;1.10;;;1.10;;
5245;SDS011;54412;51.206;6.888;2024-02-14T02:25:40;4.00;;;1.60;;
5245;SDS011;54412;51.206;6.888;2024-02-14T02:28:07;2.47;;;1.03;;
5245;SDS011;54412;51.206;6.888;2024-02-14T02:30:33;1.73;;;0.90;;
5245;SDS011;54412;51.206;6.888;2024-02-14T02:33:00;0.93;;;0.90;;
5245;SDS011;54412;51.206;6.888;2024-02-14T02:35:27;0.80;;;0.80;;
5245;SDS011;54412;51.206;6.888;2024-02-14T02:37:53;1.73;;;1.10;;
5245;SDS011;54412;51.206;6.888;2024-02-14T02:40:19;2.50;;;0.90;;
5245;SDS011;54412;51.206;6.888;2024-02-14T02:42:46;1.27;;;1.10;;
5245;SDS011;54412;51.206;6.888;2024-02-14T02:45:12;1.27;;;1.17;;
5245;SDS011;54412;51.206;6.888;2024-02-14T02:47:38;1.17;;;1.17;;
5245;SDS011;54412;51.206;6.888;2024-02-14T02:50:04;0.80;;;0.80;;
5245;SDS011;54412;51.206;6.888;2024-02-14T02:52:31;1.10;;;1.10;;
5245;SDS011;54412;51.206;6.888;2024-02-14T02:54:57;1.40;;;0.90;;
5245;SDS011;54412;51.206;6.888;2024-02-14T02:57:22;1.10;;;1.10;;
5245;SDS011;54412;51.206;6.888;2024-02-14T02:59:48;1.10;;;1.00;;
5245;SDS011;54412;51.206;6.888;2024-02-14T03:02:14;2.80;;;0.90;;
5245;SDS011;54412;51.206;6.888;2024-02-14T03:04:40;3.20;;;1.07;;
5245;SDS011;54412;51.206;6.888;2024-02-14T03:07:07;2.43;;;1.10;;
5245;SDS011;54412;51.206;6.888;2024-02-14T03:09:34;3.20;;;1.13;;
5245;SDS011;54412;51.206;6.888;2024-02-14T03:12:01;2.43;;;1.30;;
5245;SDS011;54412;51.206;6.888;2024-02-14T03:14:30;1.57;;;0.80;;
5245;SDS011;54412;51.206;6.888;2024-02-14T03:16:58;2.00;;;1.43;;
5245;SDS011;54412;51.206;6.888;2024-02-14T03:19:25;1.40;;;1.13;;
5245;SDS011;54412;51.206;6.888;2024-02-14T03:21:52;1.83;;;1.10;;
5245;SDS011;54412;51.206;6.888;2024-02-14T03:24:19;0.83;;;0.83;;
5245;SDS011;54412;51.206;6.888;2024-02-14T03:26:45;1.40;;;1.30;;
5245;SDS011;54412;51.206;6.888;2024-02-14T03:29:10;1.77;;;1.00;;
5245;SDS011;54412;51.206;6.888;2024-02-14T03:31:37;0.93;;;0.80;;
5245;SDS011;54412;51.206;6.888;2024-02-14T03:34:03;1.90;;;1.27;;
5245;SDS011;54412;51.206;6.888;2024-02-14T03:36:28;0.90;;;0.90;;
5245;SDS011;54412;51.206;6.888;2024-02-14T03:38:56;1.17;;;0.90;;
5245;SDS011;54412;51.206;6.888;2024-02-14T03:41:23;1.53;;;1.20;;
5245;SDS011;54412;51.206;6.888;2024-02-14T03:43:49;2.00;;;1.57;;
5245;SDS011;54412;51.206;6.888;2024-02-14T03:46:15;9.00;;;1.30;;
5245;SDS011;54412;51.206;6.888;2024-02-14T03:48:43;1.63;;;1.00;;
5245;SDS011;54412;51.206;6.888;2024-02-14T03:51:09;3.03;;;1.30;;
5245;SDS011;54412;51.206;6.888;2024-02-14T03:53:34;1.97;;;1.53;;
5245;SDS011;54412;51.206;6.888;2024-02-14T03:56:00;1.30;;;1.20;;
5245;SDS011;54412;51.206;6.888;2024-02-14T03:58:26;1.07;;;1.00;;
5245;SDS011;54412;51.206;6.888;2024-02-14T04:00:51;1.13;;;1.03;;
5245;SDS011;54412;51.206;6.888;2024-02-14T04:03:17;3.43;;;1.00;;
5245;SDS011;54412;51.206;6.888;2024-02-14T04:05:43;5.57;;;1.13;;
5245;SDS011;54412;51.206;6.888;2024-02-14T04:08:10;2.47;;;1.30;;
5245;SDS011;54412;51.206;6.888;2024-02-14T04:10:36;1.37;;;1.30;;
5245;SDS011;54412;51.206;6.888;2024-02-14T04:13:03;1.27;;;1.10;;
5245;SDS011;54412;51.206;6.888;2024-02-14T04:15:30;3.90;;;1.47;;
5245;SDS011;54412;51.206;6.888;2024-02-14T04:17:56;1.00;;;1.00;;
5245;SDS011;54412;51.206;6.888;2024-02-14T04:20:23;1.10;;;1.10;;
5245;SDS011;54412;51.206;6.888;2024-02-14T04:22:49;2.73;;;1.13;;
5245;SDS011;54412;51.206;6.888;2024-02-14T04:25:14;1.80;;;1.03;;
5245;SDS011;54412;51.206;6.888;2024-02-14T04:27:40;1.73;;;1.17;;
5245;SDS011;54412;51.206;6.888;2024-02-14T04:30:06;1.30;;;1.20;;
5245;SDS011;54412;51.206;6.888;2024-02-14T04:32:32;1.40;;;1.30;;
5245;SDS011;54412;51.206;6.888;2024-02-14T04:34:58;5.13;;;2.03;;
5245;SDS011;54412;51.206;6.888;2024-02-14T04:37:24;1.47;;;1.30;;
5245;SDS011;54412;51.206;6.888;2024-02-14T04:39:49;1.47;;;1.37;;
5245;SDS011;54412;51.206;6.888;2024-02-14T04:42:15;1.90;;;1.60;;
5245;SDS011;54412;51.206;6.888;2024-02-14T04:44:41;2.03;;;1.70;;
5245;SDS011;54412;51.206;6.888;2024-02-14T04:47:06;1.90;;;1.40;;
5245;SDS011;54412;51.206;6.888;2024-02-14T04:49:34;3.13;;;1.80;;
5245;SDS011;54412;51.206;6.888;2024-02-14T04:52:00;1.70;;;1.60;;
5245;SDS011;54412;51.206;6.888;2024-02-14T04:54:26;1.93;;;1.37;;
5245;SDS011;54412;51.206;6.888;2024-02-14T04:56:53;1.80;;;1.70;;
5245;SDS011;54412;51.206;6.888;2024-02-14T04:59:19;1.97;;;1.43;;
5245;SDS011;54412;51.206;6.888;2024-02-14T05:01:44;4.63;;;1.97;;
5245;SDS011;54412;51.206;6.888;2024-02-14T05:04:11;1.67;;;1.57;;
5245;SDS011;54412;51.206;6.888;2024-02-14T05:06:38;2.30;;;1.83;;
5245;SDS011;54412;51.206;6.888;2024-02-14T05:09:04;4.80;;;1.67;;
5245;SDS011;54412;51.206;6.888;2024-02-14T05:11:30;1.70;;;1.60;;
5245;SDS011;54412;51.206;6.888;2024-02-14T05:13:56;2.10;;;1.97;;
5245;SDS011;54412;51.206;6.888;2024-02-14T05:16:22;4.27;;;1.67;;
5245;SDS011;54412;51.206;6.888;2024-02-14T05:18:48;6.70;;;2.07;;
5245;SDS011;54412;51.206;6.888;2024-02-14T05:21:14;8.13;;;2.23;;
5245;SDS011;54412;51.206;6.888;2024-02-14T05:23:40;2.50;;;1.83;;
5245;SDS011;54412;51.206;6.888;2024-02-14T05:26:05;5.13;;;2.00;;
5245;SDS011;54412;51.206;6.888;2024-02-14T05:28:31;1.80;;;1.70;;
5245;SDS011;54412;51.206;6.888;2024-02-14T05:30:58;2.10;;;1.90;;
5245;SDS011;54412;51.206;6.888;2024-02-14T05:33:25;3.80;;;1.90;;
5245;SDS011;54412;51.206;6.888;2024-02-14T05:35:51;1.73;;;1.63;;
5245;SDS011;54412;51.206;6.888;2024-02-14T05:38:17;3.50;;;1.90;;
5245;SDS011;54412;51.206;6.888;2024-02-14T05:40:46;2.37;;;1.77;;
5245;SDS011;54412;51.206;6.888;2024-02-14T05:43:13;3.03;;;1.73;;
5245;SDS011;54412;51.206;6.888;2024-02-14T05:45:39;5.50;;;2.03;;
5245;SDS011;54412;51.206;6.888;2024-02-14T05:48:05;1.87;;;1.70;;
5245;SDS011;54412;51.206;6.888;2024-02-14T05:50:31;1.97;;;1.50;;
5245;SDS011;54412;51.206;6.888;2024-02-14T05:52:57;3.27;;;2.03;;
5245;SDS011;54412;51.206;6.888;2024-02-14T05:55:23;6.70;;;1.83;;
5245;SDS011;54412;51.206;6.888;2024-02-14T05:57:50;3.63;;;1.90;;
5245;SDS011;54412;51.206;6.888;2024-02-14T06:00:17;2.53;;;1.83;;
5245;SDS011;54412;51.206;6.888;2024-02-14T06:02:45;2.43;;;2.23;;
5245;SDS011;54412;51.206;6.888;2024-02-14T06:05:14;1.80;;;1.60;;
5245;SDS011;54412;51.206;6.888;2024-02-14T06:07:41;2.57;;;1.70;;
5245;SDS011;54412;51.206;6.888;2024-02-14T06:10:09;5.77;;;1.80;;
5245;SDS011;54412;51.206;6.888;2024-02-14T06:12:36;1.63;;;1.53;;
5245;SDS011;54412;51.206;6.888;2024-02-14T06:15:02;3.47;;;1.50;;
5245;SDS011;54412;51.206;6.888;2024-02-14T06:17:28;1.50;;;1.40;;
5245;SDS011;54412;51.206;6.888;2024-02-14T06:19:54;2.60;;;1.67;;
5245;SDS011;54412;51.206;6.888;2024-02-14T06:22:20;3.33;;;1.73;;
5245;SDS011;54412;51.206;6.888;2024-02-14T06:24:46;3.43;;;1.73;;
5245;SDS011;54412;51.206;6.888;2024-02-14T06:27:15;2.27;;;1.87;;
5245;SDS011;54412;51.206;6.888;2024-02-14T06:29:44;1.60;;;1.50;;
5245;SDS011;54412;51.206;6.888;2024-02-14T06:32:11;2.10;;;1.27;;
5245;SDS011;54412;51.206;6.888;2024-02-14T06:34:38;3.63;;;2.07;;
5245;SDS011;54412;51.206;6.888;2024-02-14T06:37:04;3.20;;;1.83;;
5245;SDS011;54412;51.206;6.888;2024-02-14T06:39:30;2.07;;;1.90;;
5245;SDS011;54412;51.206;6.888;2024-02-14T06:41:55;2.37;;;1.93;;
5245;SDS011;54412;51.206;6.888;2024-02-14T06:44:22;1.70;;;1.60;;
5245;SDS011;54412;51.206;6.888;2024-02-14T06:46:48;3.50;;;2.00;;
5245;SDS011;54412;51.206;6.888;2024-02-14T06:49:15;1.90;;;1.50;;
5245;SDS011;54412;51.206;6.888;2024-02-14T06:51:42;1.77;;;1.67;;
5245;SDS011;54412;51.206;6.888;2024-02-14T06:54:07;2.47;;;1.40;;
5245;SDS011;54412;51.206;6.888;2024-02-14T06:56:33;4.47;;;1.80;;
5245;SDS011;54412;51.206;6.888;2024-02-14T06:59:00;2.20;;;1.77;;
5245;SDS011;54412;51.206;6.888;2024-02-14T07:01:27;1.60;;;1.50;;
5245;SDS011;54412;51.206;6.888;2024-02-14T07:03:53;2.10;;;1.60;;
5245;SDS011;54412;51.206;6.888;2024-02-14T07:06:19;4.00;;;2.03;;
5245;SDS011;54412;51.206;6.888;2024-02-14T07:08:44;3.33;;;1.80;;
5245;SDS011;54412;51.206;6.888;2024-02-14T07:11:10;5.67;;;2.40;;
5245;SDS011;54412;51.206;6.888;2024-02-14T07:13:36;1.87;;;1.77;;
5245;SDS011;54412;51.206;6.888;2024-02-14T07:16:02;3.70;;;1.97;;
5245;SDS011;54412;51.206;6.888;2024-02-14T07:18:28;2.00;;;1.90;;
5245;SDS011;54412;51.206;6.888;2024-02-14T07:20:53;2.53;;;1.60;;
5245;SDS011;54412;51.206;6.888;2024-02-14T07:23:20;1.97;;;1.77;;
5245;SDS011;54412;51.206;6.888;2024-02-14T07:25:46;1.90;;;1.80;;
5245;SDS011;54412;51.206;6.888;2024-02-14T07:28:11;2.20;;;1.37;;
5245;SDS011;54412;51.206;6.888;2024-02-14T07:30:37;1.97;;;1.80;;
5245;SDS011;54412;51.206;6.888;2024-02-14T07:33:03;2.53;;;1.80;;
5245;SDS011;54412;51.206;6.888;2024-02-14T07:35:29;4.00;;;2.00;;
5245;SDS011;54412;51.206;6.888;2024-02-14T07:37:55;1.83;;;1.73;;
5245;SDS011;54412;51.206;6.888;2024-02-14T07:40:24;8.00;;;1.63;;
5245;SDS011;54412;51.206;6.888;2024-02-14T07:42:50;1.83;;;1.70;;
5245;SDS011;54412;51.206;6.888;2024-02-14T07:45:15;2.47;;;1.80;;
5245;SDS011;54412;51.206;6.888;2024-02-14T07:47:42;3.83;;;2.03;;
5245;SDS011;54412;51.206;6.888;2024-02-14T07:50:07;6.80;;;2.57;;
5245;SDS011;54412;51.206;6.888;2024-02-14T07:52:33;3.27;;;2.20;;
5245;SDS011;54412;51.206;6.888;2024-02-14T07:54:59;3.50;;;2.10;;
5245;SDS011;54412;51.206;6.888;2024-02-14T07:57:25;3.87;;;1.70;;
5245;SDS011;54412;51.206;6.888;2024-02-14T07:59:51;3.27;;;2.00;;
5245;SDS011;54412;51.206;6.888;2024-02-14T08:02:17;3.67;;;1.40;;
5245;SDS011;54412;51.206;6.888;2024-02-14T08:04:43;5.87;;;2.10;;
5245;SDS011;54412;51.206;6.888;2024-02-14T08:07:09;2.10;;;1.80;;
5245;SDS011;54412;51.206;6.888;2024-02-14T08:09:35;7.50;;;2.10;;
5245;SDS011;54412;51.206;6.888;2024-02-14T08:12:01;4.23;;;1.70;;
5245;SDS011;54412;51.206;6.888;2024-02-14T08:14:27;2.17;;;1.97;;
5245;SDS011;54412;51.206;6.888;2024-02-14T08:16:53;4.70;;;1.77;;
5245;SDS011;54412;51.206;6.888;2024-02-14T08:19:19;4.53;;;1.57;;
5245;SDS011;54412;51.206;6.888;2024-02-14T08:21:45;3.03;;;1.90;;
5245;SDS011;54412;51.206;6.888;2024-02-14T08:24:10;2.20;;;1.67;;
5245;SDS011;54412;51.206;6.888;2024-02-14T08:26:36;2.70;;;1.77;;
5245;SDS011;54412;51.206;6.888;2024-02-14T08:29:02;5.93;;;2.00;;
5245;SDS011;54412;51.206;6.888;2024-02-14T08:31:29;4.67;;;1.73;;
5245;SDS011;54412;51.206;6.888;2024-02-14T08:33:55;2.43;;;1.80;;
5245;SDS011;54412;51.206;6.888;2024-02-14T08:36:20;5.27;;;2.27;;
5245;SDS011;54412;51.206;6.888;2024-02-14T08:38:46;4.20;;;2.23;;
5245;SDS011;54412;51.206;6.888;2024-02-14T08:41:12;4.73;;;1.83;;
5245;SDS011;54412;51.206;6.888;2024-02-14T08:43:39;2.60;;;2.20;;
5245;SDS011;54412;51.206;6.888;2024-02-14T08:46:08;4.57;;;3.13;;
5245;SDS011;54412;51.206;6.888;2024-02-14T08:48:36;4.40;;;2.10;;
5245;SDS011;54412;51.206;6.888;2024-02-14T08:51:06;2.30;;;1.57;;
5245;SDS011;54412;51.206;6.888;2024-02-14T08:53:34;3.13;;;1.63;;
5245;SDS011;54412;51.206;6.888;2024-02-14T08:56:01;2.20;;;1.67;;
5245;SDS011;54412;51.206;6.888;2024-02-14T08:58:26;9.10;;;1.73;;
5245;SDS011;54412;51.206;6.888;2024-02-14T09:00:52;2.60;;;1.90;;
5245;SDS011;54412;51.206;6.888;2024-02-14T09:03:18;4.77;;;1.60;;
5245;SDS011;54412;51.206;6.888;2024-02-14T09:05:44;4.73;;;1.87;;
5245;SDS011;54412;51.206;6.888;2024-02-14T09:08:11;1.40;;;1.40;;
5245;SDS011;54412;51.206;6.888;2024-02-14T09:10:38;2.83;;;1.43;;
5245;SDS011;54412;51.206;6.888;2024-02-14T09:13:04;2.07;;;1.27;;
5245;SDS011;54412;51.206;6.888;2024-02-14T09:15:32;1.77;;;1.50;;
5245;SDS011;54412;51.206;6.888;2024-02-14T09:17:58;7.47;;;2.00;;
5245;SDS011;54412;51.206;6.888;2024-02-14T09:20:25;1.50;;;1.30;;
5245;SDS011;54412;51.206;6.888;2024-02-14T09:22:51;1.93;;;1.60;;
5245;SDS011;54412;51.206;6.888;2024-02-14T09:25:18;2.13;;;1.37;;
5245;SDS011;54412;51.206;6.888;2024-02-14T09:27:44;1.50;;;1.40;;
5245;SDS011;54412;51.206;6.888;2024-02-14T09:30:12;2.43;;;1.57;;
5245;SDS011;54412;51.206;6.888;2024-02-14T09:32:38;2.73;;;2.00;;
5245;SDS011;54412;51.206;6.888;2024-02-14T09:35:04;2.00;;;1.60;;
5245;SDS011;54412;51.206;6.888;2024-02-14T09:37:32;1.40;;;1.30;;
5245;SDS011;54412;51.206;6.888;2024-02-14T09:39:58;2.50;;;1.30;;
5245;SDS011;54412;51.206;6.888;2024-02-14T09:43:07;1.20;;;1.20;;
5245;SDS011;54412;51.206;6.888;2024-02-14T09:45:19;2.20;;;1.57;;
5245;SDS011;54412;51.206;6.888;2024-02-14T09:47:45;1.63;;;1.40;;
5245;SDS011;54412;51.206;6.888;2024-02-14T09:50:11;4.20;;;1.40;;
5245;SDS011;54412;51.206;6.888;2024-02-14T09:52:38;1.87;;;1.40;;
5245;SDS011;54412;51.206;6.888;2024-02-14T09:55:04;3.13;;;1.10;;
5245;SDS011;54412;51.206;6.888;2024-02-14T09:57:32;1.80;;;1.30;;
5245;SDS011;54412;51.206;6.888;2024-02-14T09:59:59;2.07;;;1.80;;
5245;SDS011;54412;51.206;6.888;2024-02-14T10:02:27;1.90;;;1.10;;
5245;SDS011;54412;51.206;6.888;2024-02-14T10:04:55;3.30;;;1.20;;
5245;SDS011;54412;51.206;6.888;2024-02-14T10:07:21;2.20;;;1.10;;
5245;SDS011;54412;51.206;6.888;2024-02-14T10:09:47;1.90;;;1.10;;
5245;SDS011;54412;51.206;6.888;2024-02-14T10:12:14;3.33;;;1.10;;
5245;SDS011;54412;51.206;6.888;2024-02-14T10:14:39;1.37;;;0.80;;
5245;SDS011;54412;51.206;6.888;2024-02-14T10:17:07;2.30;;;1.40;;
5245;SDS011;54412;51.206;6.888;2024-02-14T10:19:35;1.10;;;0.80;;
5245;SDS011;54412;51.206;6.888;2024-02-14T10:22:01;3.87;;;1.20;;
5245;SDS011;54412;51.206;6.888;2024-02-14T10:24:30;4.60;;;0.97;;
5245;SDS011;54412;51.206;6.888;2024-02-14T10:26:56;1.67;;;1.47;;
5245;SDS011;54412;51.206;6.888;2024-02-14T10:29:24;1.43;;;0.93;;
5245;SDS011;54412;51.206;6.888;2024-02-14T10:31:53;3.27;;;1.30;;
5245;SDS011;54412;51.206;6.888;2024-02-14T10:34:19;3.70;;;1.20;;
5245;SDS011;54412;51.206;6.888;2024-02-14T10:36:51;3.27;;;1.30;;
5245;SDS011;54412;51.206;6.888;2024-02-14T10:39:22;0.80;;;0.77;;
5245;SDS011;54412;51.206;6.888;2024-02-14T10:41:50;1.30;;;1.10;;
5245;SDS011;54412;51.206;6.888;2024-02-14T10:44:16;4.30;;;1.10;;
5245;SDS011;54412;51.206;6.888;2024-02-14T10:46:42;1.83;;;1.07;;
5245;SDS011;54412;51.206;6.888;2024-02-14T10:49:14;1.53;;;1.10;;
5245;SDS011;54412;51.206;6.888;2024-02-14T10:51:42;3.47;;;1.10;;
5245;SDS011;54412;51.206;6.888;2024-02-14T10:54:13;2.73;;;1.07;;
5245;SDS011;54412;51.206;6.888;2024-02-14T10:56:42;8.13;;;2.43;;
5245;SDS011;54412;51.206;6.888;2024-02-14T10:59:14;4.50;;;1.10;;
5245;SDS011;54412;51.206;6.888;2024-02-14T11:01:44;2.53;;;1.23;;
5245;SDS011;54412;51.206;6.888;2024-02-14T11:04:12;5.60;;;1.30;;
5245;SDS011;54412;51.206;6.888;2024-02-14T11:06:46;2.50;;;1.30;;
5245;SDS011;54412;51.206;6.888;2024-02-14T11:09:13;2.37;;;1.20;;
5245;SDS011;54412;51.206;6.888;2024-02-14T11:11:41;2.20;;;1.60;;
5245;SDS011;54412;51.206;6.888;2024-02-14T11:14:14;3.70;;;1.83;;
5245;SDS011;54412;51.206;6.888;2024-02-14T11:16:46;8.50;;;2.03;;
5245;SDS011;54412;51.206;6.888;2024-02-14T11:19:13;4.37;;;1.73;;
5245;SDS011;54412;51.206;6.888;2024-02-14T11:21:45;5.13;;;2.17;;
5245;SDS011;54412;51.206;6.888;2024-02-14T11:24:13;1.90;;;1.37;;
5245;SDS011;54412;51.206;6.888;2024-02-14T11:29:17;3.50;;;1.70;;
5245;SDS011;54412;51.206;6.888;2024-02-14T11:31:44;1.60;;;1.47;;
5245;SDS011;54412;51.206;6.888;2024-02-14T11:34:13;4.50;;;1.17;;
5245;SDS011;54412;51.206;6.888;2024-02-14T11:36:43;6.80;;;1.77;;
5245;SDS011;54412;51.206;6.888;2024-02-14T11:39:10;5.60;;;1.60;;
5245;SDS011;54412;51.206;6.888;2024-02-14T11:41:37;3.10;;;1.20;;
5245;SDS011;54412;51.206;6.888;2024-02-14T11:44:03;4.63;;;2.30;;
5245;SDS011;54412;51.206;6.888;2024-02-14T11:46:33;2.07;;;1.30;;
5245;SDS011;54412;51.206;6.888;2024-02-14T11:49:01;4.83;;;1.37;;
5245;SDS011;54412;51.206;6.888;2024-02-14T11:51:30;3.43;;;1.57;;
5245;SDS011;54412;51.206;6.888;2024-02-14T11:54:00;5.00;;;1.70;;
5245;SDS011;54412;51.206;6.888;2024-02-14T11:56:32;5.10;;;1.40;;
5245;SDS011;54412;51.206;6.888;2024-02-14T11:59:00;3.03;;;1.00;;
5245;SDS011;54412;51.206;6.888;2024-02-14T12:01:35;3.27;;;1.10;;
5245;SDS011;54412;51.206;6.888;2024-02-14T12:04:04;9.93;;;1.50;;
5245;SDS011;54412;51.206;6.888;2024-02-14T12:06:34;2.20;;;1.60;;
5245;SDS011;54412;51.206;6.888;2024-02-14T12:09:04;3.60;;;1.30;;
5245;SDS011;54412;51.206;6.888;2024-02-14T12:11:36;2.10;;;1.33;;
5245;SDS011;54412;51.206;6.888;2024-02-14T12:14:07;5.03;;;2.10;;
5245;SDS011;54412;51.206;6.888;2024-02-14T12:16:34;5.13;;;1.53;;
5245;SDS011;54412;51.206;6.888;2024-02-14T12:19:15;1.77;;;1.10;;
5245;SDS011;54412;51.206;6.888;2024-02-14T12:21:42;2.07;;;1.20;;
5245;SDS011;54412;51.206;6.888;2024-02-14T12:24:13;3.07;;;1.23;;
5245;SDS011;54412;51.206;6.888;2024-02-14T12:26:39;2.77;;;1.37;;
5245;SDS011;54412;51.206;6.888;2024-02-14T12:29:07;1.43;;;1.20;;
5245;SDS011;54412;51.206;6.888;2024-02-14T12:31:36;3.40;;;1.30;;
5245;SDS011;54412;51.206;6.888;2024-02-14T12:34:02;3.87;;;1.30;;
5245;SDS011;54412;51.206;6.888;2024-02-14T12:36:30;3.60;;;1.00;;
5245;SDS011;54412;51.206;6.888;2024-02-14T12:38:58;3.07;;;1.03;;
5245;SDS011;54412;51.206;6.888;2024-02-14T12:41:27;2.83;;;0.93;;
5245;SDS011;54412;51.206;6.888;2024-02-14T12:43:54;2.60;;;1.17;;
5245;SDS011;54412;51.206;6.888;2024-02-14T12:46:21;2.50;;;1.00;;
5245;SDS011;54412;51.206;6.888;2024-02-14T12:48:47;1.30;;;1.00;;
5245;SDS011;54412;51.206;6.888;2024-02-14T12:51:13;4.47;;;1.40;;
5245;SDS011;54412;51.206;6.888;2024-02-14T12:53:40;1.27;;;1.17;;
5245;SDS011;54412;51.206;6.888;2024-02-14T12:56:07;1.37;;;1.10;;
5245;SDS011;54412;51.206;6.888;2024-02-14T12:58:33;6.10;;;1.27;;
5245;SDS011;54412;51.206;6.888;2024-02-14T13:00:59;5.60;;;1.60;;
5245;SDS011;54412;51.206;6.888;2024-02-14T13:03:25;3.07;;;1.30;;
5245;SDS011;54412;51.206;6.888;2024-02-14T13:05:53;4.83;;;1.30;;
5245;SDS011;54412;51.206;6.888;2024-02-14T13:08:19;2.90;;;1.30;;
5245;SDS011;54412;51.206;6.888;2024-02-14T13:10:48;3.93;;;1.67;;
5245;SDS011;54412;51.206;6.888;2024-02-14T13:13:14;1.83;;;1.07;;
5245;SDS011;54412;51.206;6.888;2024-02-14T13:15:40;6.20;;;1.00;;
5245;SDS011;54412;51.206;6.888;2024-02-14T13:18:08;1.57;;;1.10;;
5245;SDS011;54412;51.206;6.888;2024-02-14T13:20:34;15.87;;;1.27;;
5245;SDS011;54412;51.206;6.888;2024-02-14T13:23:00;0.97;;;0.90;;
5245;SDS011;54412;51.206;6.888;2024-02-14T13:25:27;1.40;;;0.77;;
5245;SDS011;54412;51.206;6.888;2024-02-14T13:27:53;1.33;;;0.90;;
5245;SDS011;54412;51.206;6.888;2024-02-14T13:30:20;1.53;;;1.27;;
5245;SDS011;54412;51.206;6.888;2024-02-14T13:32:47;0.90;;;0.70;;
5245;SDS011;54412;51.206;6.888;2024-02-14T13:35:13;2.40;;;1.00;;
5245;SDS011;54412;51.206;6.888;2024-02-14T13:37:39;3.03;;;1.07;;
5245;SDS011;54412;51.206;6.888;2024-02-14T13:40:05;2.30;;;0.97;;
5245;SDS011;54412;51.206;6.888;2024-02-14T13:42:36;2.73;;;0.70;;
5245;SDS011;54412;51.206;6.888;2024-02-14T13:45:05;1.77;;;0.70;;
5245;SDS011;54412;51.206;6.888;2024-02-14T13:47:39;3.03;;;1.00;;
5245;SDS011;54412;51.206;6.888;2024-02-14T13:50:05;1.70;;;0.90;;
5245;SDS011;54412;51.206;6.888;2024-02-14T13:52:33;2.10;;;0.80;;
5245;SDS011;54412;51.206;6.888;2024-02-14T13:54:59;1.77;;;0.80;;
5245;SDS011;54412;51.206;6.888;2024-02-14T13:57:30;1.60;;;1.00;;
5245;SDS011;54412;51.206;6.888;2024-02-14T13:59:58;0.70;;;0.70;;
5245;SDS011;54412;51.206;6.888;2024-02-14T14:02:24;0.83;;;0.80;;
5245;SDS011;54412;51.206;6.888;2024-02-14T14:04:49;1.77;;;0.67;;
5245;SDS011;54412;51.206;6.888;2024-02-14T14:07:17;0.90;;;0.90;;
5245;SDS011;54412;51.206;6.888;2024-02-14T14:09:43;1.00;;;1.00;;
5245;SDS011;54412;51.206;6.888;2024-02-14T14:12:09;2.60;;;0.93;;
5245;SDS011;54412;51.206;6.888;2024-02-14T14:14:36;1.73;;;0.70;;
5245;SDS011;54412;51.206;6.888;2024-02-14T14:17:02;1.87;;;0.77;;
5245;SDS011;54412;51.206;6.888;2024-02-14T14:19:28;1.70;;;0.70;;
5245;SDS011;54412;51.206;6.888;2024-02-14T14:21:53;1.37;;;0.87;;
5245;SDS011;54412;51.206;6.888;2024-02-14T14:24:19;1.63;;;0.70;;
5245;SDS011;54412;51.206;6.888;2024-02-14T14:26:45;2.40;;;1.03;;
5245;SDS011;54412;51.206;6.888;2024-02-14T14:29:11;0.67;;;0.67;;
5245;SDS011;54412;51.206;6.888;2024-02-14T14:31:36;3.37;;;1.10;;
5245;SDS011;54412;51.206;6.888;2024-02-14T14:34:02;2.70;;;1.13;;
5245;SDS011;54412;51.206;6.888;2024-02-14T14:36:28;1.27;;;0.90;;
5245;SDS011;54412;51.206;6.888;2024-02-14T14:38:54;0.70;;;0.70;;
5245;SDS011;54412;51.206;6.888;2024-02-14T14:41:19;0.60;;;0.60;;
5245;SDS011;54412;51.206;6.888;2024-02-14T14:43:46;1.90;;;0.50;;
5245;SDS011;54412;51.206;6.888;2024-02-14T14:46:14;0.97;;;0.63;;
5245;SDS011;54412;51.206;6.888;2024-02-14T14:48:40;1.20;;;0.70;;
5245;SDS011;54412;51.206;6.888;2024-02-14T14:51:06;0.90;;;0.67;;
5245;SDS011;54412;51.206;6.888;2024-02-14T14:53:33;1.37;;;0.80;;
5245;SDS011;54412;51.206;6.888;2024-02-14T14:56:00;1.50;;;0.73;;
5245;SDS011;54412;51.206;6.888;2024-02-14T14:58:26;1.07;;;0.83;;
5245;SDS011;54412;51.206;6.888;2024-02-14T15:00:55;1.27;;;0.80;;